Time;durP1;ratioP1;P1;durP2;ratioP2;P2;SDS_P1;SDS_P2;PMS_P1;PMS_P2;Temp;Humidity;BMP_temperature;BMP_pressure;BME280_temperature;BME280_humidity;BME280_pressure;Samples;Min_cycle;Max_cycle;Signal;HPM_P1;HPM_P2
2021/09/16 00:00:29;;;;;;;;;;;;;;;13.05;100.00;92995.97;2116033;28;19907;-82
2021/09/16 00:01:30;;;;;;;;;;;;;;;13.01;100.00;92995.34;2110875;28;19919;-81
2021/09/16 00:02:31;;;;;;;;;;;;;;;13.00;100.00;93004.59;2111337;28;20002;-81
2021/09/16 00:03:32;;;;;;;;;;;;;;;13.05;100.00;92997.91;2110369;28;20276;-80
2021/09/16 00:04:36;;;;;;;;;;;;;;;13.07;100.00;92998.97;2116046;27;19911;-82
2021/09/16 00:05:37;;;;;;;;;;;;;;;13.10;100.00;93005.41;2119982;27;20002;-82
2021/09/16 00:06:41;;;;;;;;;;;;;;;13.01;100.00;93008.00;2109872;28;20358;-82
2021/09/16 00:07:42;;;;;;;;;;;;;;;13.01;100.00;93010.69;2117856;27;19912;-84
2021/09/16 00:08:43;;;;;;;;;;;;;;;12.99;100.00;93013.03;2122171;27;19916;-79
2021/09/16 00:09:44;;;;;;;;;;;;;;;13.05;100.00;93005.97;2107232;28;20006;-80
2021/09/16 00:10:45;;;;;;;;;;;;;;;12.99;100.00;93010.38;2114562;28;19961;-82
2021/09/16 00:11:47;;;;;;;;;;;;;;;13.15;100.00;93012.91;2114106;28;20370;-83
2021/09/16 00:12:48;;;;;;;;;;;;;;;13.23;100.00;93008.09;2117303;27;20286;-84
2021/09/16 00:13:49;;;;;;;;;;;;;;;13.15;100.00;93014.84;2113897;28;19911;-84
2021/09/16 00:14:52;;;;;;;;;;;;;;;13.13;100.00;93011.84;2115308;27;19957;-80
2021/09/16 00:15:53;;;;;;;;;;;;;;;13.08;100.00;93021.94;2121716;27;19923;-77
2021/09/16 00:16:54;;;;;;;;;;;;;;;13.33;100.00;93028.44;2130045;27;19927;-81
2021/09/16 00:17:55;;;;;;;;;;;;;;;13.25;100.00;93025.25;2118986;27;19949;-81
2021/09/16 00:18:56;;;;;;;;;;;;;;;13.28;100.00;93021.69;2117114;27;19911;-83
2021/09/16 00:19:57;;;;;;;;;;;;;;;13.34;100.00;93033.41;2118542;27;19915;-82
2021/09/16 00:20:58;;;;;;;;;;;;;;;13.27;100.00;93022.13;2115853;28;20307;-80
2021/09/16 00:21:59;;;;;;;;;;;;;;;13.21;100.00;93019.22;2129023;27;19911;-84
2021/09/16 00:23:01;;;;;;;;;;;;;;;13.17;100.00;93028.56;2119256;27;20454;-82
2021/09/16 00:24:02;;;;;;;;;;;;;;;13.20;100.00;93017.72;2114468;28;19977;-80
2021/09/16 00:25:04;;;;;;;;;;;;;;;13.21;100.00;93021.91;2114059;27;19944;-80
2021/09/16 00:26:05;;;;;;;;;;;;;;;13.27;100.00;93017.53;2104410;28;19916;-84
2021/09/16 00:27:06;;;;;;;;;;;;;;;13.19;100.00;93023.53;2112932;27;19908;-81
2021/09/16 00:28:11;;;;;;;;;;;;;;;13.19;100.00;93028.91;2123273;27;19913;-84
2021/09/16 00:29:14;;;;;;;;;;;;;;;13.10;100.00;93021.50;2106848;28;19916;-82
2021/09/16 00:30:15;;;;;;;;;;;;;;;13.23;100.00;93018.81;2112593;28;20348;-79
2021/09/16 00:31:16;;;;;;;;;;;;;;;13.10;100.00;93024.19;2109093;27;19951;-81
2021/09/16 00:32:17;;;;;;;;;;;;;;;13.12;100.00;93024.50;2118383;27;19907;-84
2021/09/16 00:33:18;;;;;;;;;;;;;;;13.07;100.00;93025.81;2111849;28;20301;-81
2021/09/16 00:34:19;;;;;;;;;;;;;;;13.11;100.00;93021.06;2121548;27;19907;-82
2021/09/16 00:35:20;;;;;;;;;;;;;;;13.11;100.00;93031.81;2121398;27;19913;-79
2021/09/16 00:36:21;;;;;;;;;;;;;;;13.24;100.00;93020.31;2109861;28;19908;-86
2021/09/16 00:37:22;;;;;;;;;;;;;;;13.26;100.00;93031.38;2115666;28;19930;-81
2021/09/16 00:38:23;;;;;;;;;;;;;;;13.14;100.00;93032.13;2100756;28;19975;-79
2021/09/16 00:39:24;;;;;;;;;;;;;;;13.13;100.00;93033.31;2108372;28;19919;-81
2021/09/16 00:40:25;;;;;;;;;;;;;;;13.14;100.00;93026.78;2126284;27;19945;-81
2021/09/16 00:41:28;;;;;;;;;;;;;;;13.14;100.00;93029.44;2111064;28;19922;-84
2021/09/16 00:42:29;;;;;;;;;;;;;;;13.16;100.00;93030.50;2113070;28;19919;-81
2021/09/16 00:43:30;;;;;;;;;;;;;;;13.13;100.00;93030.66;2115488;28;19965;-80
2021/09/16 00:44:31;;;;;;;;;;;;;;;13.07;100.00;93028.47;2126080;27;19910;-81
2021/09/16 00:45:32;;;;;;;;;;;;;;;13.07;100.00;93033.84;2128672;27;19911;-79
2021/09/16 00:46:33;;;;;;;;;;;;;;;13.22;100.00;93020.75;2119179;27;19912;-79
2021/09/16 00:47:34;;;;;;;;;;;;;;;13.22;100.00;93023.44;2108752;28;19922;-82
2021/09/16 00:48:35;;;;;;;;;;;;;;;13.16;100.00;93029.75;2119958;27;19920;-79
2021/09/16 00:49:36;;;;;;;;;;;;;;;13.14;100.00;93029.44;2125875;27;19911;-82
2021/09/16 00:50:37;;;;;;;;;;;;;;;13.11;100.00;93020.31;2126761;27;19911;-82
2021/09/16 00:51:39;;;;;;;;;;;;;;;13.09;100.00;93022.69;2108215;28;19915;-82
2021/09/16 00:52:41;;;;;;;;;;;;;;;13.04;100.00;93026.69;2111482;27;19911;-82
2021/09/16 00:53:42;;;;;;;;;;;;;;;13.13;100.00;93023.34;2131043;27;20536;-82
2021/09/16 00:54:44;;;;;;;;;;;;;;;13.13;100.00;93017.22;2125984;27;19911;-79
2021/09/16 00:55:46;;;;;;;;;;;;;;;13.11;100.00;93017.63;2125532;27;19911;-80
2021/09/16 00:56:48;;;;;;;;;;;;;;;13.13;100.00;93012.59;2115419;28;19919;-82
2021/09/16 00:57:53;;;;;;;;;;;;;;;13.21;100.00;93008.47;2103353;28;19919;-82
2021/09/16 00:58:56;;;;;;;;;;;;;;;13.14;100.00;93007.97;2112496;27;20299;-82
2021/09/16 01:00:00;;;;;;;;;;;;;;;13.09;100.00;93012.72;2111758;27;19916;-80
2021/09/16 01:01:01;;;;;;;;;;;;;;;13.09;100.00;93020.75;2111349;27;19912;-81
2021/09/16 01:02:02;;;;;;;;;;;;;;;13.12;100.00;93011.09;2115691;27;19945;-81
2021/09/16 01:03:03;;;;;;;;;;;;;;;13.15;100.00;93020.22;2119521;27;19912;-81
2021/09/16 01:04:05;;;;;;;;;;;;;;;13.16;100.00;93019.03;2124588;27;19998;-84
2021/09/16 01:05:06;;;;;;;;;;;;;;;13.18;100.00;93014.72;2123896;27;19907;-83
2021/09/16 01:06:07;;;;;;;;;;;;;;;13.12;100.00;93011.09;2122279;27;19907;-82
2021/09/16 01:07:11;;;;;;;;;;;;;;;13.11;100.00;93013.03;2126567;27;19915;-82
2021/09/16 01:08:12;;;;;;;;;;;;;;;13.10;100.00;93019.56;2121685;27;19915;-84
2021/09/16 01:09:13;;;;;;;;;;;;;;;13.15;100.00;93014.84;2118698;27;19923;-79
2021/09/16 01:10:14;;;;;;;;;;;;;;;13.24;100.00;93010.31;2123092;27;19915;-79
2021/09/16 01:11:15;;;;;;;;;;;;;;;13.14;100.00;93006.03;2115341;28;19923;-82
2021/09/16 01:12:16;;;;;;;;;;;;;;;13.15;100.00;93010.22;2113901;28;20007;-78
2021/09/16 01:13:17;;;;;;;;;;;;;;;13.13;100.00;93004.56;2116972;27;19912;-83
2021/09/16 01:14:22;;;;;;;;;;;;;;;13.21;100.00;93005.03;2120684;27;19911;-80
2021/09/16 01:15:23;;;;;;;;;;;;;;;13.19;100.00;93005.50;2112901;28;19957;-79
2021/09/16 01:16:24;;;;;;;;;;;;;;;13.16;100.00;93013.66;2108306;28;19919;-81
2021/09/16 01:17:25;;;;;;;;;;;;;;;13.09;100.00;93004.66;2113916;28;19918;-78
2021/09/16 01:18:26;;;;;;;;;;;;;;;13.07;100.00;93012.38;2110971;28;19911;-81
2021/09/16 01:19:27;;;;;;;;;;;;;;;13.07;100.00;93014.31;2122304;27;19918;-81
2021/09/16 01:20:28;;;;;;;;;;;;;;;13.11;100.00;92999.59;2121213;27;19911;-80
2021/09/16 01:21:29;;;;;;;;;;;;;;;13.05;100.00;93000.59;2117376;27;20373;-80
2021/09/16 01:22:34;;;;;;;;;;;;;;;13.11;100.00;93017.63;2116056;28;19943;-83
2021/09/16 01:23:35;;;;;;;;;;;;;;;13.24;100.00;93006.91;2119409;27;19911;-86
2021/09/16 01:24:36;;;;;;;;;;;;;;;13.18;100.00;93005.94;2120828;27;19961;-80
2021/09/16 01:25:37;;;;;;;;;;;;;;;13.14;100.00;93005.31;2111230;28;20020;-81
2021/09/16 01:26:39;;;;;;;;;;;;;;;13.17;100.00;93010.56;2106812;28;20014;-82
2021/09/16 01:27:40;;;;;;;;;;;;;;;13.20;100.00;93003.56;2110922;28;19907;-82
2021/09/16 01:28:41;;;;;;;;;;;;;;;13.16;100.00;93006.34;2117833;27;19919;-79
2021/09/16 01:29:41;;;;;;;;;;;;;;;13.19;100.00;93002.81;2117738;27;19913;-81
2021/09/16 01:30:44;;;;;;;;;;;;;;;13.22;100.00;93001.19;2118497;27;20345;-78
2021/09/16 01:31:46;;;;;;;;;;;;;;;13.21;100.00;93003.09;2119168;27;19919;-78
2021/09/16 01:32:48;;;;;;;;;;;;;;;13.16;100.00;93000.22;2118848;27;19912;-81
2021/09/16 01:33:49;;;;;;;;;;;;;;;13.24;100.00;93001.53;2110410;28;19990;-85
2021/09/16 01:34:51;;;;;;;;;;;;;;;13.31;100.00;93006.66;2118822;27;19945;-79
2021/09/16 01:35:52;;;;;;;;;;;;;;;13.33;100.00;93007.72;2119251;27;19919;-79
2021/09/16 01:36:53;;;;;;;;;;;;;;;13.27;100.00;93011.41;2113532;28;20003;-80
2021/09/16 01:37:54;;;;;;;;;;;;;;;13.28;100.00;93004.84;2118373;27;19912;-84
2021/09/16 01:38:56;;;;;;;;;;;;;;;13.23;100.00;93011.50;2124240;27;20252;-81
2021/09/16 01:39:57;;;;;;;;;;;;;;;13.22;100.00;93012.72;2117930;27;19958;-84
2021/09/16 01:40:57;;;;;;;;;;;;;;;13.23;100.00;93014.19;2104816;28;19958;-85
2021/09/16 01:41:58;;;;;;;;;;;;;;;13.26;100.00;93009.91;2107509;28;19995;-80
2021/09/16 01:42:59;;;;;;;;;;;;;;;13.25;100.00;93000.34;2121702;27;20276;-81
2021/09/16 01:44:00;;;;;;;;;;;;;;;13.27;100.00;92997.97;2115675;28;19919;-82
2021/09/16 01:45:02;;;;;;;;;;;;;;;13.27;100.00;93003.34;2119997;27;20391;-82
2021/09/16 01:46:03;;;;;;;;;;;;;;;13.26;100.00;93007.22;2116220;27;19998;-84
2021/09/16 01:47:04;;;;;;;;;;;;;;;13.28;100.00;93002.91;2117355;27;19915;-81
2021/09/16 01:48:04;;;;;;;;;;;;;;;13.26;100.00;93005.28;2100270;28;19920;-79
2021/09/16 01:49:06;;;;;;;;;;;;;;;13.23;100.00;92998.09;2100533;28;19923;-81
2021/09/16 01:50:07;;;;;;;;;;;;;;;13.24;100.00;92996.16;2121271;27;19914;-81
2021/09/16 01:51:08;;;;;;;;;;;;;;;13.21;100.00;92992.38;2123054;27;19911;-80
2021/09/16 01:52:10;;;;;;;;;;;;;;;13.16;100.00;93000.22;2108319;28;19943;-82
2021/09/16 01:53:10;;;;;;;;;;;;;;;13.19;100.00;92999.38;2115155;27;20363;-81
2021/09/16 01:54:11;;;;;;;;;;;;;;;13.23;100.00;92995.41;2123101;27;19911;-80
2021/09/16 01:55:13;;;;;;;;;;;;;;;13.24;100.00;92991.53;2123621;27;19952;-82
2021/09/16 01:56:14;;;;;;;;;;;;;;;13.16;100.00;93002.91;2121441;27;20017;-78
2021/09/16 01:57:15;;;;;;;;;;;;;;;13.17;100.00;92999.03;2115132;28;19931;-83
2021/09/16 01:58:16;;;;;;;;;;;;;;;13.18;100.00;92995.19;2119745;27;19907;-84
2021/09/16 01:59:17;;;;;;;;;;;;;;;13.19;100.00;92994.75;2118538;27;19957;-83
2021/09/16 02:00:18;;;;;;;;;;;;;;;13.22;100.00;92998.50;2128613;27;19972;-80
2021/09/16 02:01:19;;;;;;;;;;;;;;;13.25;100.00;92992.28;2132094;27;20542;-83
2021/09/16 02:02:20;;;;;;;;;;;;;;;13.22;100.00;92999.28;2115777;28;19914;-79
2021/09/16 02:03:21;;;;;;;;;;;;;;;13.29;100.00;92992.91;2109888;28;19946;-83
2021/09/16 02:04:22;;;;;;;;;;;;;;;13.28;100.00;92991.41;2106738;28;19987;-79
2021/09/16 02:05:23;;;;;;;;;;;;;;;13.28;100.00;92994.09;2114934;28;20383;-82
2021/09/16 02:06:24;;;;;;;;;;;;;;;13.26;100.00;92999.19;2123314;27;19907;-83
2021/09/16 02:07:25;;;;;;;;;;;;;;;13.22;100.00;92998.50;2115192;28;19907;-82
2021/09/16 02:08:26;;;;;;;;;;;;;;;13.19;100.00;92992.06;2108131;28;20065;-81
2021/09/16 02:09:27;;;;;;;;;;;;;;;13.11;100.00;92996.91;2114956;28;19916;-81
2021/09/16 02:10:28;;;;;;;;;;;;;;;13.16;100.00;92992.19;2115551;27;19968;-83
2021/09/16 02:11:29;;;;;;;;;;;;;;;13.15;100.00;92996.06;2117417;27;19912;-83
2021/09/16 02:12:29;;;;;;;;;;;;;;;13.17;100.00;92993.69;2118368;27;19923;-82
2021/09/16 02:13:30;;;;;;;;;;;;;;;13.07;100.00;92995.53;2121027;27;19907;-80
2021/09/16 02:14:31;;;;;;;;;;;;;;;13.08;100.00;92989.75;2103695;28;19912;-85
2021/09/16 02:15:32;;;;;;;;;;;;;;;13.07;100.00;92990.91;2108005;28;19941;-81
2021/09/16 02:16:33;;;;;;;;;;;;;;;13.05;100.00;93000.59;2115570;28;19912;-82
2021/09/16 02:17:34;;;;;;;;;;;;;;;12.91;100.00;92999.13;2119641;27;19918;-81
2021/09/16 02:18:35;;;;;;;;;;;;;;;13.01;100.00;92989.97;2118189;27;19919;-82
2021/09/16 02:19:36;;;;;;;;;;;;;;;13.07;100.00;92995.53;2127500;27;19914;-80
2021/09/16 02:20:37;;;;;;;;;;;;;;;12.95;100.00;93004.38;2127825;27;20431;-79
2021/09/16 02:21:38;;;;;;;;;;;;;;;12.99;100.00;92995.00;2119889;27;20309;-85
2021/09/16 02:22:39;;;;;;;;;;;;;;;13.00;100.00;92993.84;2118678;28;19908;-82
2021/09/16 02:23:40;;;;;;;;;;;;;;;13.01;100.00;92995.34;2106305;28;20535;-84
2021/09/16 02:24:41;;;;;;;;;;;;;;;12.99;100.00;93000.38;2117162;28;20260;-84
2021/09/16 02:25:42;;;;;;;;;;;;;;;12.99;100.00;92996.94;2115685;28;19984;-85
2021/09/16 02:26:43;;;;;;;;;;;;;;;12.97;100.00;93000.06;2103711;28;19907;-82
2021/09/16 02:27:44;;;;;;;;;;;;;;;12.98;100.00;92998.88;2110666;28;19926;-80
2021/09/16 02:28:45;;;;;;;;;;;;;;;12.97;100.00;92999.31;2111327;28;19965;-80
2021/09/16 02:29:46;;;;;;;;;;;;;;;12.96;100.00;92987.09;2114967;28;20272;-79
2021/09/16 02:30:46;;;;;;;;;;;;;;;12.97;100.00;92999.31;2110005;28;20383;-83
2021/09/16 02:31:47;;;;;;;;;;;;;;;12.89;100.00;93001.47;2102935;28;19952;-82
2021/09/16 02:32:48;;;;;;;;;;;;;;;12.83;100.00;92995.94;2112443;28;19907;-80
2021/09/16 02:33:49;;;;;;;;;;;;;;;12.85;100.00;92992.81;2117817;27;19990;-82
2021/09/16 02:34:50;;;;;;;;;;;;;;;12.77;100.00;92997.63;2117756;28;19939;-84
2021/09/16 02:35:54;;;;;;;;;;;;;;;12.79;100.00;92997.22;2106623;28;20269;-80
2021/09/16 02:36:55;;;;;;;;;;;;;;;12.88;100.00;92997.31;2106331;28;20261;-82
2021/09/16 02:37:55;;;;;;;;;;;;;;;12.88;100.00;92991.94;2101043;28;19957;-79
2021/09/16 02:38:56;;;;;;;;;;;;;;;12.97;100.00;92985.91;2110254;28;19943;-83
2021/09/16 02:39:57;;;;;;;;;;;;;;;12.98;100.00;92990.84;2113009;28;19908;-80
2021/09/16 02:40:58;;;;;;;;;;;;;;;12.96;100.00;92992.47;2120328;28;20606;-83
2021/09/16 02:41:59;;;;;;;;;;;;;;;12.94;100.00;92981.41;2119069;28;19916;-81
2021/09/16 02:42:59;;;;;;;;;;;;;;;13.00;100.00;92982.38;2120259;28;19957;-83
2021/09/16 02:44:00;;;;;;;;;;;;;;;12.97;100.00;92980.53;2106307;28;20334;-83
2021/09/16 02:45:02;;;;;;;;;;;;;;;12.96;100.00;92982.47;2122447;27;20412;-82
2021/09/16 02:46:02;;;;;;;;;;;;;;;12.97;100.00;92981.28;2115464;28;19911;-80
2021/09/16 02:47:03;;;;;;;;;;;;;;;12.85;100.00;92982.81;2114752;28;20033;-78
2021/09/16 02:48:04;;;;;;;;;;;;;;;12.82;100.00;92989.06;2112933;28;19955;-80
2021/09/16 02:49:05;;;;;;;;;;;;;;;12.91;100.00;92980.34;2106479;28;19915;-83
2021/09/16 02:50:06;;;;;;;;;;;;;;;12.89;100.00;92979.28;2100885;28;19912;-83
2021/09/16 02:51:07;;;;;;;;;;;;;;;12.91;100.00;92979.63;2112422;28;19911;-82
2021/09/16 02:52:08;;;;;;;;;;;;;;;12.93;100.00;92974.53;2102083;28;20412;-81
2021/09/16 02:53:09;;;;;;;;;;;;;;;12.93;100.00;92980.66;2101220;28;19923;-81
2021/09/16 02:54:09;;;;;;;;;;;;;;;12.94;100.00;92976.78;2110881;28;19930;-84
2021/09/16 02:55:10;;;;;;;;;;;;;;;12.88;100.00;92973.16;2118209;28;19931;-83
2021/09/16 02:56:11;;;;;;;;;;;;;;;12.86;100.00;92980.88;2115345;28;19914;-82
2021/09/16 02:57:12;;;;;;;;;;;;;;;12.89;100.00;92973.91;2115382;28;19960;-82
2021/09/16 02:58:13;;;;;;;;;;;;;;;12.87;100.00;92970.94;2118622;28;19976;-82
2021/09/16 02:59:14;;;;;;;;;;;;;;;12.84;100.00;92969.84;2114240;28;19918;-82
2021/09/16 03:00:15;;;;;;;;;;;;;;;12.88;100.00;92970.47;2109203;28;19912;-80
2021/09/16 03:01:15;;;;;;;;;;;;;;;12.91;100.00;92980.34;2120066;27;19987;-85
2021/09/16 03:02:16;;;;;;;;;;;;;;;12.93;100.00;92977.22;2124155;27;19907;-80
2021/09/16 03:03:17;;;;;;;;;;;;;;;12.88;100.00;92977.78;2119941;27;19919;-81
2021/09/16 03:04:18;;;;;;;;;;;;;;;12.87;100.00;92973.59;2116461;27;20300;-81
2021/09/16 03:05:20;;;;;;;;;;;;;;;12.85;100.00;92980.13;2114632;27;19908;-80
2021/09/16 03:06:21;;;;;;;;;;;;;;;12.87;100.00;92973.59;2116384;27;19997;-82
2021/09/16 03:07:22;;;;;;;;;;;;;;;12.93;100.00;92975.28;2116400;28;19907;-84
2021/09/16 03:08:23;;;;;;;;;;;;;;;12.92;100.00;92973.81;2119883;27;19907;-84
2021/09/16 03:09:24;;;;;;;;;;;;;;;12.89;100.00;92982.72;2124756;27;19925;-81
2021/09/16 03:10:25;;;;;;;;;;;;;;;12.89;100.00;92974.66;2118345;27;19994;-78
2021/09/16 03:11:26;;;;;;;;;;;;;;;12.89;100.00;92979.28;2112700;28;19915;-82
2021/09/16 03:12:27;;;;;;;;;;;;;;;12.86;100.00;92978.19;2120054;27;19977;-78
2021/09/16 03:13:28;;;;;;;;;;;;;;;12.85;100.00;92968.66;2127621;27;19918;-79
2021/09/16 03:14:30;;;;;;;;;;;;;;;12.78;100.00;92971.59;2117995;27;20016;-82
2021/09/16 03:15:31;;;;;;;;;;;;;;;12.77;100.00;92970.06;2100429;28;19912;-84
2021/09/16 03:16:32;;;;;;;;;;;;;;;12.76;100.00;92966.63;2093172;28;19919;-82
2021/09/16 03:17:33;;;;;;;;;;;;;;;12.73;100.00;92967.53;2115267;27;19907;-78
2021/09/16 03:18:34;;;;;;;;;;;;;;;12.68;100.00;92969.97;2121853;27;19915;-81
2021/09/16 03:19:35;;;;;;;;;;;;;;;12.67;100.00;92966.56;2116005;28;19956;-81
2021/09/16 03:20:36;;;;;;;;;;;;;;;12.72;100.00;92967.94;2121635;27;20347;-81
2021/09/16 03:21:37;;;;;;;;;;;;;;;12.69;100.00;92969.56;2124704;27;20405;-80
2021/09/16 03:22:38;;;;;;;;;;;;;;;12.74;100.00;92970.97;2111835;28;19916;-83
2021/09/16 03:23:40;;;;;;;;;;;;;;;12.80;100.00;92966.53;2106717;28;19912;-82
2021/09/16 03:24:40;;;;;;;;;;;;;;;12.79;100.00;92957.75;2105832;28;19988;-82
2021/09/16 03:25:41;;;;;;;;;;;;;;;12.75;100.00;92959.03;2112153;28;19915;-81
2021/09/16 03:26:42;;;;;;;;;;;;;;;12.77;100.00;92959.34;2107762;28;19920;-79
2021/09/16 03:27:43;;;;;;;;;;;;;;;12.78;100.00;92958.94;2112323;27;19958;-84
2021/09/16 03:28:44;;;;;;;;;;;;;;;12.83;100.00;92968.34;2112120;27;19926;-79
2021/09/16 03:29:45;;;;;;;;;;;;;;;12.82;100.00;92962.25;2106499;28;20344;-78
2021/09/16 03:30:46;;;;;;;;;;;;;;;12.83;100.00;92960.31;2116156;28;19919;-81
2021/09/16 03:31:48;;;;;;;;;;;;;;;12.74;100.00;92969.03;2118084;27;19919;-82
2021/09/16 03:32:49;;;;;;;;;;;;;;;12.75;100.00;92975.13;2107358;28;19923;-80
2021/09/16 03:33:50;;;;;;;;;;;;;;;12.74;100.00;92973.63;2101869;28;20360;-79
2021/09/16 03:34:51;;;;;;;;;;;;;;;12.76;100.00;92973.94;2099648;28;19913;-82
2021/09/16 03:35:52;;;;;;;;;;;;;;;12.78;100.00;92975.03;2116219;28;19907;-79
2021/09/16 03:36:53;;;;;;;;;;;;;;;12.78;100.00;92972.34;2099281;28;19916;-81
2021/09/16 03:37:54;;;;;;;;;;;;;;;12.81;100.00;92979.50;2106810;28;19989;-82
2021/09/16 03:38:55;;;;;;;;;;;;;;;12.79;100.00;92973.84;2118223;27;19911;-82
2021/09/16 03:39:56;;;;;;;;;;;;;;;12.83;100.00;92971.03;2132567;27;19911;-80
2021/09/16 03:40:57;;;;;;;;;;;;;;;12.79;100.00;92979.19;2107725;28;20402;-82
2021/09/16 03:41:57;;;;;;;;;;;;;;;12.87;100.00;92970.94;2107737;28;19908;-79
2021/09/16 03:42:58;;;;;;;;;;;;;;;12.87;100.00;92970.94;2108256;28;19909;-82
2021/09/16 03:43:59;;;;;;;;;;;;;;;12.88;100.00;92965.13;2116593;27;19907;-81
2021/09/16 03:45:00;;;;;;;;;;;;;;;12.88;100.00;92972.41;2125403;27;19907;-79
2021/09/16 03:46:02;;;;;;;;;;;;;;;12.87;100.00;92970.94;2107783;28;19948;-83
2021/09/16 03:47:04;;;;;;;;;;;;;;;12.83;100.00;92968.34;2107727;28;19943;-79
2021/09/16 03:48:05;;;;;;;;;;;;;;;12.78;100.00;92980.38;2118420;27;20003;-83
2021/09/16 03:49:06;;;;;;;;;;;;;;;12.74;100.00;92973.63;2107963;28;19915;-84
2021/09/16 03:50:07;;;;;;;;;;;;;;;12.77;100.00;92980.78;2115166;28;19915;-78
2021/09/16 03:51:08;;;;;;;;;;;;;;;12.85;100.00;92982.06;2116681;27;20050;-82
2021/09/16 03:52:10;;;;;;;;;;;;;;;12.87;100.00;92973.59;2126416;27;19911;-79
2021/09/16 03:53:11;;;;;;;;;;;;;;;12.88;100.00;92983.91;2127535;27;20419;-79
2021/09/16 03:54:12;;;;;;;;;;;;;;;12.89;100.00;92984.66;2118771;27;19942;-81
2021/09/16 03:55:14;;;;;;;;;;;;;;;12.90;100.00;92978.84;2119152;27;20002;-80
2021/09/16 03:56:15;;;;;;;;;;;;;;;12.89;100.00;92987.31;2117680;27;19919;-79
2021/09/16 03:57:15;;;;;;;;;;;;;;;12.85;100.00;92980.13;2118838;27;19986;-78
2021/09/16 03:58:16;;;;;;;;;;;;;;;12.98;100.00;92974.00;2117641;27;19911;-84
2021/09/16 03:59:17;;;;;;;;;;;;;;;13.00;100.00;92980.44;2118593;27;19919;-82
2021/09/16 04:00:18;;;;;;;;;;;;;;;12.97;100.00;92985.91;2115386;27;19914;-83
2021/09/16 04:01:19;;;;;;;;;;;;;;;12.98;100.00;92980.09;2112267;28;19912;-82
2021/09/16 04:02:20;;;;;;;;;;;;;;;12.96;100.00;92982.47;2100681;28;19915;-78
2021/09/16 04:03:21;;;;;;;;;;;;;;;12.96;100.00;92976.38;2105067;28;19912;-82
2021/09/16 04:04:22;;;;;;;;;;;;;;;12.98;100.00;92979.34;2113531;28;19919;-80
2021/09/16 04:05:23;;;;;;;;;;;;;;;13.03;100.00;92976.88;2113644;28;19916;-79
2021/09/16 04:06:24;;;;;;;;;;;;;;;12.93;100.00;92977.22;2119078;27;19994;-80
2021/09/16 04:07:25;;;;;;;;;;;;;;;12.95;100.00;92975.63;2125772;27;20366;-82
2021/09/16 04:08:26;;;;;;;;;;;;;;;12.94;100.00;92974.09;2126898;27;19930;-84
2021/09/16 04:09:27;;;;;;;;;;;;;;;12.93;100.00;92980.66;2115714;28;19962;-81
2021/09/16 04:10:28;;;;;;;;;;;;;;;12.92;100.00;92976.47;2112527;28;20365;-84
2021/09/16 04:11:29;;;;;;;;;;;;;;;13.02;100.00;92975.38;2121252;27;20543;-82
2021/09/16 04:12:30;;;;;;;;;;;;;;;12.98;100.00;92969.38;2107522;28;19908;-81
2021/09/16 04:13:31;;;;;;;;;;;;;;;13.03;100.00;92973.44;2108571;28;19912;-81
2021/09/16 04:14:32;;;;;;;;;;;;;;;13.08;100.00;92976.34;2107006;28;19954;-80
2021/09/16 04:15:33;;;;;;;;;;;;;;;13.15;100.00;92967.28;2107538;28;20011;-79
2021/09/16 04:16:34;;;;;;;;;;;;;;;13.08;100.00;92972.88;2109516;28;19908;-79
2021/09/16 04:17:35;;;;;;;;;;;;;;;12.96;100.00;92971.75;2111943;28;19955;-81
2021/09/16 04:18:36;;;;;;;;;;;;;;;12.98;100.00;92979.34;2117195;27;19914;-83
2021/09/16 04:19:37;;;;;;;;;;;;;;;13.13;100.00;92979.66;2116942;27;20081;-79
2021/09/16 04:20:38;;;;;;;;;;;;;;;13.09;100.00;92979.75;2121938;27;19949;-83
2021/09/16 04:21:39;;;;;;;;;;;;;;;13.05;100.00;92984.50;2121625;27;19964;-83
2021/09/16 04:22:40;;;;;;;;;;;;;;;13.13;100.00;92980.41;2124613;27;19956;-81
2021/09/16 04:23:41;;;;;;;;;;;;;;;13.14;100.00;92979.22;2119097;27;19918;-82
2021/09/16 04:24:43;;;;;;;;;;;;;;;13.11;100.00;92980.06;2118514;27;20405;-78
2021/09/16 04:25:45;;;;;;;;;;;;;;;13.07;100.00;92988.22;2121228;27;19915;-82
2021/09/16 04:26:46;;;;;;;;;;;;;;;13.01;100.00;92986.56;2117225;27;19915;-82
2021/09/16 04:27:47;;;;;;;;;;;;;;;12.97;100.00;92988.59;2107266;28;20348;-83
2021/09/16 04:28:48;;;;;;;;;;;;;;;12.96;100.00;92981.75;2121277;27;19976;-83
2021/09/16 04:29:49;;;;;;;;;;;;;;;12.95;100.00;92983.69;2118229;27;19919;-80
2021/09/16 04:30:50;;;;;;;;;;;;;;;13.04;100.00;92991.06;2115978;28;19907;-78
2021/09/16 04:31:51;;;;;;;;;;;;;;;12.98;100.00;92982.78;2116339;28;19911;-80
2021/09/16 04:32:52;;;;;;;;;;;;;;;13.10;100.00;92990.06;2116249;28;19915;-81
2021/09/16 04:33:53;;;;;;;;;;;;;;;13.09;100.00;92979.75;2116330;28;19912;-83
2021/09/16 04:34:54;;;;;;;;;;;;;;;13.02;100.00;92978.06;2115384;28;20479;-81
2021/09/16 04:35:55;;;;;;;;;;;;;;;13.00;100.00;92975.06;2115771;28;19922;-82
2021/09/16 04:36:56;;;;;;;;;;;;;;;13.03;100.00;92981.50;2115643;27;19965;-79
2021/09/16 04:37:57;;;;;;;;;;;;;;;13.00;100.00;92983.13;2113031;28;20368;-82
2021/09/16 04:38:57;;;;;;;;;;;;;;;13.01;100.00;92989.22;2108584;28;19959;-80
2021/09/16 04:39:59;;;;;;;;;;;;;;;13.02;100.00;92978.06;2118297;27;19951;-85
2021/09/16 04:41:00;;;;;;;;;;;;;;;13.04;100.00;92981.06;2107296;28;19992;-84
2021/09/16 04:42:01;;;;;;;;;;;;;;;12.97;100.00;92986.66;2100990;28;19912;-82
2021/09/16 04:43:02;;;;;;;;;;;;;;;12.94;100.00;92984.09;2101984;28;19908;-82
2021/09/16 04:44:03;;;;;;;;;;;;;;;13.01;100.00;92987.28;2099668;28;19918;-83
2021/09/16 04:45:04;;;;;;;;;;;;;;;13.00;100.00;92983.13;2120468;27;20347;-82
2021/09/16 04:46:05;;;;;;;;;;;;;;;13.00;100.00;92991.16;2127941;27;19940;-80
2021/09/16 04:47:06;;;;;;;;;;;;;;;13.01;100.00;92987.28;2128627;27;20426;-78
2021/09/16 04:48:07;;;;;;;;;;;;;;;12.99;100.00;92981.59;2120023;27;19998;-83
2021/09/16 04:49:08;;;;;;;;;;;;;;;13.02;100.00;92985.34;2116198;27;19923;-83
2021/09/16 04:50:11;;;;;;;;;;;;;;;12.99;100.00;92992.31;2119845;27;19907;-81
2021/09/16 04:51:12;;;;;;;;;;;;;;;13.01;100.00;92994.59;2128475;27;19915;-82
2021/09/16 04:52:14;;;;;;;;;;;;;;;12.99;100.00;92994.28;2132377;27;19907;-81
2021/09/16 04:53:15;;;;;;;;;;;;;;;13.06;100.00;92986.00;2115801;27;19908;-78
2021/09/16 04:54:16;;;;;;;;;;;;;;;12.99;100.00;92984.28;2119389;27;20584;-80
2021/09/16 04:55:17;;;;;;;;;;;;;;;13.09;100.00;92980.50;2121243;27;19907;-83
2021/09/16 04:56:18;;;;;;;;;;;;;;;13.04;100.00;92983.75;2122729;27;19918;-80
2021/09/16 04:57:19;;;;;;;;;;;;;;;13.03;100.00;92984.91;2123004;27;19915;-80
2021/09/16 04:58:20;;;;;;;;;;;;;;;12.99;100.00;92986.22;2119742;27;19908;-82
2021/09/16 04:59:21;;;;;;;;;;;;;;;12.98;100.00;92979.34;2121496;27;19918;-82
2021/09/16 05:00:22;;;;;;;;;;;;;;;13.00;100.00;92983.13;2116145;27;19964;-83
2021/09/16 05:01:23;;;;;;;;;;;;;;;13.03;100.00;92982.22;2118215;27;19911;-81
2021/09/16 05:02:24;;;;;;;;;;;;;;;13.02;100.00;92988.03;2119960;27;20371;-79
2021/09/16 05:03:25;;;;;;;;;;;;;;;13.03;100.00;92987.59;2108416;28;19912;-79
2021/09/16 05:04:27;;;;;;;;;;;;;;;13.01;100.00;92989.22;2109321;28;19911;-79
2021/09/16 05:05:32;;;;;;;;;;;;;;;12.96;100.00;92989.78;2100401;28;20301;-79
2021/09/16 05:06:33;;;;;;;;;;;;;;;13.02;100.00;92988.03;2098126;28;19908;-84
2021/09/16 05:07:34;;;;;;;;;;;;;;;13.03;100.00;92989.53;2098320;28;19947;-80
2021/09/16 05:08:35;;;;;;;;;;;;;;;13.08;100.00;92991.66;2106439;28;20289;-81
2021/09/16 05:09:36;;;;;;;;;;;;;;;13.08;100.00;92986.28;2114487;28;19921;-83
2021/09/16 05:10:37;;;;;;;;;;;;;;;13.09;100.00;92988.56;2114776;28;20006;-80
2021/09/16 05:11:42;;;;;;;;;;;;;;;13.14;100.00;92981.88;2108742;28;19920;-84
2021/09/16 05:12:42;;;;;;;;;;;;;;;13.04;100.00;92991.81;2110674;28;19923;-81
2021/09/16 05:13:43;;;;;;;;;;;;;;;13.07;100.00;92982.13;2108602;28;19919;-84